sensor_id;sensor_type;location;lat;lon;timestamp;pressure;altitude;pressure_sealevel;temperature;humidity
40384;BME280;26097;42.366;23.818;2023-01-28T00:02:40;93307.00;;;-1.15;100.00
40384;BME280;26097;42.366;23.818;2023-01-28T00:05:41;93313.78;;;-1.14;100.00
40384;BME280;26097;42.366;23.818;2023-01-28T00:08:41;93313.78;;;-1.14;100.00
40384;BME280;26097;42.366;23.818;2023-01-28T00:11:42;93321.31;;;-1.11;100.00
40384;BME280;26097;42.366;23.818;2023-01-28T00:14:42;93327.19;;;-1.09;100.00
40384;BME280;26097;42.366;23.818;2023-01-28T00:17:45;93322.88;;;-1.08;100.00
40384;BME280;26097;42.366;23.818;2023-01-28T00:20:55;93321.16;;;-1.08;100.00
40384;BME280;26097;42.366;23.818;2023-01-28T00:23:56;93323.72;;;-1.08;100.00
40384;BME280;26097;42.366;23.818;2023-01-28T00:26:56;93326.91;;;-1.03;100.00
40384;BME280;26097;42.366;23.818;2023-01-28T00:29:57;93323.47;;;-1.02;100.00
40384;BME280;26097;42.366;23.818;2023-01-28T00:32:57;93327.63;;;-0.99;100.00
40384;BME280;26097;42.366;23.818;2023-01-28T00:36:02;93320.72;;;-0.97;100.00
40384;BME280;26097;42.366;23.818;2023-01-28T00:39:02;93325.63;;;-0.92;100.00
40384;BME280;26097;42.366;23.818;2023-01-28T00:42:03;93332.69;;;-0.97;100.00
40384;BME280;26097;42.366;23.818;2023-01-28T00:45:04;93328.19;;;-0.92;100.00
40384;BME280;26097;42.366;23.818;2023-01-28T00:48:04;93328.31;;;-0.95;100.00
40384;BME280;26097;42.366;23.818;2023-01-28T00:51:06;93334.97;;;-0.91;100.00
40384;BME280;26097;42.366;23.818;2023-01-28T00:54:07;93337.38;;;-0.88;100.00
40384;BME280;26097;42.366;23.818;2023-01-28T00:57:07;93335.66;;;-0.88;100.00
40384;BME280;26097;42.366;23.818;2023-01-28T01:00:08;93332.97;;;-0.84;100.00
40384;BME280;26097;42.366;23.818;2023-01-28T01:03:09;93344.78;;;-0.82;100.00
40384;BME280;26097;42.366;23.818;2023-01-28T01:06:10;93345.81;;;-0.86;100.00
40384;BME280;26097;42.366;23.818;2023-01-28T01:09:11;93343.25;;;-0.86;100.00
40384;BME280;26097;42.366;23.818;2023-01-28T01:12:12;93345.06;;;-0.88;100.00
40384;BME280;26097;42.366;23.818;2023-01-28T01:15:12;93342.69;;;-0.93;100.00
40384;BME280;26097;42.366;23.818;2023-01-28T01:18:13;93343.91;;;-1.02;100.00
40384;BME280;26097;42.366;23.818;2023-01-28T01:21:16;93343.09;;;-1.02;100.00
40384;BME280;26097;42.366;23.818;2023-01-28T01:24:16;93339.69;;;-1.03;100.00
40384;BME280;26097;42.366;23.818;2023-01-28T01:27:17;93352.50;;;-1.03;100.00
40384;BME280;26097;42.366;23.818;2023-01-28T01:30:17;93346.44;;;-1.00;100.00
40384;BME280;26097;42.366;23.818;2023-01-28T01:33:18;93345.34;;;-0.94;100.00
40384;BME280;26097;42.366;23.818;2023-01-28T01:36:18;93352.31;;;-0.98;100.00
40384;BME280;26097;42.366;23.818;2023-01-28T01:39:20;93357.47;;;-0.99;100.00
40384;BME280;26097;42.366;23.818;2023-01-28T01:42:21;93359.13;;;-0.98;100.00
40384;BME280;26097;42.366;23.818;2023-01-28T01:45:21;93367.06;;;-1.05;100.00
40384;BME280;26097;42.366;23.818;2023-01-28T01:48:30;93367.59;;;-0.96;100.00
40384;BME280;26097;42.366;23.818;2023-01-28T01:51:33;93361.38;;;-0.91;100.00
40384;BME280;26097;42.366;23.818;2023-01-28T01:54:36;93369.75;;;-0.87;100.00
40384;BME280;26097;42.366;23.818;2023-01-28T01:57:38;93369.00;;;-0.89;100.00
40384;BME280;26097;42.366;23.818;2023-01-28T02:00:40;93369.75;;;-0.87;100.00
40384;BME280;26097;42.366;23.818;2023-01-28T02:04:07;93369.81;;;-0.89;100.00
40384;BME280;26097;42.366;23.818;2023-01-28T02:07:10;93366.47;;;-0.91;100.00
40384;BME280;26097;42.366;23.818;2023-01-28T02:10:12;93365.53;;;-0.88;100.00
40384;BME280;26097;42.366;23.818;2023-01-28T02:13:14;93368.13;;;-0.90;100.00
40384;BME280;26097;42.366;23.818;2023-01-28T02:16:15;93377.00;;;-0.97;100.00
40384;BME280;26097;42.366;23.818;2023-01-28T02:19:18;93382.94;;;-0.96;100.00
40384;BME280;26097;42.366;23.818;2023-01-28T02:29:26;93378.84;;;-1.01;100.00
40384;BME280;26097;42.366;23.818;2023-01-28T02:35:42;93386.66;;;-1.04;100.00
40384;BME280;26097;42.366;23.818;2023-01-28T02:38:48;93392.53;;;-1.02;100.00
40384;BME280;26097;42.366;23.818;2023-01-28T02:41:56;93391.75;;;-1.04;100.00
40384;BME280;26097;42.366;23.818;2023-01-28T02:44:59;93382.44;;;-1.05;100.00
40384;BME280;26097;42.366;23.818;2023-01-28T02:47:59;93390.09;;;-1.05;100.00
40384;BME280;26097;42.366;23.818;2023-01-28T02:51:07;93387.53;;;-1.05;100.00
40384;BME280;26097;42.366;23.818;2023-01-28T02:57:42;93395.22;;;-1.05;100.00
40384;BME280;26097;42.366;23.818;2023-01-28T03:04:25;93389.06;;;-1.01;100.00
40384;BME280;26097;42.366;23.818;2023-01-28T03:07:29;93380.63;;;-1.03;100.00
40384;BME280;26097;42.366;23.818;2023-01-28T03:10:30;93394.31;;;-1.04;100.00
40384;BME280;26097;42.366;23.818;2023-01-28T03:13:31;93392.66;;;-1.05;100.00
40384;BME280;26097;42.366;23.818;2023-01-28T03:16:52;93391.84;;;-1.05;100.00
40384;BME280;26097;42.366;23.818;2023-01-28T03:20:12;93391.75;;;-1.04;100.00
40384;BME280;26097;42.366;23.818;2023-01-28T03:23:40;93390.88;;;-1.03;100.00
40384;BME280;26097;42.366;23.818;2023-01-28T03:31:11;93394.44;;;-1.07;100.00
40384;BME280;26097;42.366;23.818;2023-01-28T03:34:31;93404.69;;;-1.07;100.00
40384;BME280;26097;42.366;23.818;2023-01-28T03:37:50;93402.88;;;-1.05;100.00
40384;BME280;26097;42.366;23.818;2023-01-28T03:40:54;93399.44;;;-1.04;100.00
40384;BME280;26097;42.366;23.818;2023-01-28T03:43:55;93400.34;;;-1.05;100.00
40384;BME280;26097;42.366;23.818;2023-01-28T03:46:55;93402.00;;;-1.04;100.00
40384;BME280;26097;42.366;23.818;2023-01-28T03:49:57;93401.94;;;-1.02;100.00
40384;BME280;26097;42.366;23.818;2023-01-28T03:53:00;93412.09;;;-1.01;100.00
40384;BME280;26097;42.366;23.818;2023-01-28T03:56:11;93415.41;;;-0.98;100.00
40384;BME280;26097;42.366;23.818;2023-01-28T03:59:17;93416.31;;;-0.99;100.00
40384;BME280;26097;42.366;23.818;2023-01-28T04:02:19;93418.88;;;-0.99;100.00
40384;BME280;26097;42.366;23.818;2023-01-28T04:05:20;93413.88;;;-1.03;100.00
40384;BME280;26097;42.366;23.818;2023-01-28T04:08:21;93415.53;;;-1.02;100.00
40384;BME280;26097;42.366;23.818;2023-01-28T04:11:22;93420.66;;;-1.02;100.00
40384;BME280;26097;42.366;23.818;2023-01-28T04:14:25;93427.56;;;-1.04;100.00
40384;BME280;26097;42.366;23.818;2023-01-28T04:17:25;93424.13;;;-1.03;100.00
40384;BME280;26097;42.366;23.818;2023-01-28T04:20:25;93424.13;;;-1.03;100.00
40384;BME280;26097;42.366;23.818;2023-01-28T04:23:26;93429.09;;;-0.99;100.00
40384;BME280;26097;42.366;23.818;2023-01-28T04:26:28;93431.59;;;-0.98;100.00
40384;BME280;26097;42.366;23.818;2023-01-28T04:29:29;93430.97;;;-1.03;100.00
40384;BME280;26097;42.366;23.818;2023-01-28T04:32:30;93435.06;;;-0.99;100.00
40384;BME280;26097;42.366;23.818;2023-01-28T04:35:30;93430.66;;;-0.95;100.00
40384;BME280;26097;42.366;23.818;2023-01-28T04:38:31;93437.44;;;-0.94;100.00
40384;BME280;26097;42.366;23.818;2023-01-28T04:41:31;93443.56;;;-0.98;100.00
40384;BME280;26097;42.366;23.818;2023-01-28T04:44:31;93442.78;;;-1.01;100.00
40384;BME280;26097;42.366;23.818;2023-01-28T04:47:32;93444.44;;;-0.99;100.00
40384;BME280;26097;42.366;23.818;2023-01-28T04:50:32;93454.69;;;-0.99;100.00
40384;BME280;26097;42.366;23.818;2023-01-28T04:53:33;93451.34;;;-1.02;100.00
40384;BME280;26097;42.366;23.818;2023-01-28T04:56:33;93454.69;;;-0.99;100.00
40384;BME280;26097;42.366;23.818;2023-01-28T04:59:33;93466.03;;;-1.05;100.00
40384;BME280;26097;42.366;23.818;2023-01-28T05:02:34;93468.69;;;-1.08;100.00
40384;BME280;26097;42.366;23.818;2023-01-28T05:05:34;93468.94;;;-1.15;100.00
40384;BME280;26097;42.366;23.818;2023-01-28T05:08:35;93462.13;;;-1.14;100.00
40384;BME280;26097;42.366;23.818;2023-01-28T05:11:35;93469.13;;;-1.19;100.00
40384;BME280;26097;42.366;23.818;2023-01-28T05:14:35;93475.91;;;-1.18;100.00
40384;BME280;26097;42.366;23.818;2023-01-28T05:17:36;93470.91;;;-1.21;100.00
40384;BME280;26097;42.366;23.818;2023-01-28T05:20:36;93477.63;;;-1.19;100.00
40384;BME280;26097;42.366;23.818;2023-01-28T05:23:37;93475.78;;;-1.15;100.00
40384;BME280;26097;42.366;23.818;2023-01-28T05:26:37;93479.34;;;-1.19;100.00
40384;BME280;26097;42.366;23.818;2023-01-28T05:29:38;93472.53;;;-1.19;100.00
40384;BME280;26097;42.366;23.818;2023-01-28T05:32:38;93469.25;;;-1.22;100.00
40384;BME280;26097;42.366;23.818;2023-01-28T05:35:38;93471.00;;;-1.23;100.00
40384;BME280;26097;42.366;23.818;2023-01-28T05:38:39;93471.03;;;-1.24;100.00
40384;BME280;26097;42.366;23.818;2023-01-28T05:41:39;93474.44;;;-1.24;100.00
40384;BME280;26097;42.366;23.818;2023-01-28T05:44:40;93479.47;;;-1.22;100.00
40384;BME280;26097;42.366;23.818;2023-01-28T05:47:40;93489.56;;;-1.19;100.00
40384;BME280;26097;42.366;23.818;2023-01-28T05:50:40;93484.41;;;-1.18;100.00
40384;BME280;26097;42.366;23.818;2023-01-28T05:53:41;93490.88;;;-1.09;100.00
40384;BME280;26097;42.366;23.818;2023-01-28T05:56:41;93485.50;;;-1.03;100.00
40384;BME280;26097;42.366;23.818;2023-01-28T05:59:42;93497.28;;;-0.98;100.00
40384;BME280;26097;42.366;23.818;2023-01-28T06:02:42;93499.53;;;-0.91;100.00
40384;BME280;26097;42.366;23.818;2023-01-28T06:05:42;93501.25;;;-0.91;100.00
40384;BME280;26097;42.366;23.818;2023-01-28T06:08:43;93505.09;;;-0.81;100.00
40384;BME280;26097;42.366;23.818;2023-01-28T06:11:43;93511.06;;;-0.80;100.00
40384;BME280;26097;42.366;23.818;2023-01-28T06:14:44;93521.28;;;-0.80;100.00
40384;BME280;26097;42.366;23.818;2023-01-28T06:17:45;93516.09;;;-0.79;100.00
40384;BME280;26097;42.366;23.818;2023-01-28T06:20:48;93527.13;;;-0.77;100.00
40384;BME280;26097;42.366;23.818;2023-01-28T06:23:48;93533.91;;;-0.76;100.00
40384;BME280;26097;42.366;23.818;2023-01-28T06:26:49;93535.50;;;-0.73;100.00
40384;BME280;26097;42.366;23.818;2023-01-28T06:29:49;93540.56;;;-0.72;100.00
40384;BME280;26097;42.366;23.818;2023-01-28T06:32:56;93541.84;;;-0.61;100.00
40384;BME280;26097;42.366;23.818;2023-01-28T06:35:56;93548.56;;;-0.59;100.00
40384;BME280;26097;42.366;23.818;2023-01-28T06:38:57;93544.78;;;-0.50;100.00
40384;BME280;26097;42.366;23.818;2023-01-28T06:41:58;93552.28;;;-0.45;100.00
40384;BME280;26097;42.366;23.818;2023-01-28T06:44:59;93556.19;;;-0.36;100.00
40384;BME280;26097;42.366;23.818;2023-01-28T06:47:59;93563.66;;;-0.32;100.00
40384;BME280;26097;42.366;23.818;2023-01-28T06:50:59;93566.31;;;-0.33;100.00
40384;BME280;26097;42.366;23.818;2023-01-28T06:54:00;93578.84;;;-0.27;100.00
40384;BME280;26097;42.366;23.818;2023-01-28T06:57:00;93582.25;;;-0.26;100.00
40384;BME280;26097;42.366;23.818;2023-01-28T07:00:01;93593.00;;;-0.18;100.00
40384;BME280;26097;42.366;23.818;2023-01-28T07:03:01;93591.81;;;-0.11;100.00
40384;BME280;26097;42.366;23.818;2023-01-28T07:06:02;93591.59;;;-0.05;100.00
40384;BME280;26097;42.366;23.818;2023-01-28T07:09:02;93594.06;;;-0.03;100.00
40384;BME280;26097;42.366;23.818;2023-01-28T07:12:03;93601.88;;;-0.06;100.00
40384;BME280;26097;42.366;23.818;2023-01-28T07:15:04;93611.22;;;-0.05;100.00
40384;BME280;26097;42.366;23.818;2023-01-28T07:18:05;93607.78;;;-0.04;100.00
40384;BME280;26097;42.366;23.818;2023-01-28T07:21:05;93612.84;;;-0.03;100.00
40384;BME280;26097;42.366;23.818;2023-01-28T07:24:06;93616.34;;;-0.05;100.00
40384;BME280;26097;42.366;23.818;2023-01-28T07:27:07;93626.59;;;-0.05;100.00
40384;BME280;26097;42.366;23.818;2023-01-28T07:30:08;93634.28;;;-0.05;100.00
40384;BME280;26097;42.366;23.818;2023-01-28T07:33:08;93629.94;;;-0.03;100.00
40384;BME280;26097;42.366;23.818;2023-01-28T07:36:09;93629.88;;;-0.02;100.00
40384;BME280;26097;42.366;23.818;2023-01-28T07:39:09;93633.53;;;-0.07;100.00
40384;BME280;26097;42.366;23.818;2023-01-28T07:42:09;93635.06;;;-0.03;100.00
40384;BME280;26097;42.366;23.818;2023-01-28T07:45:10;93635.44;;;0.08;100.00
40384;BME280;26097;42.366;23.818;2023-01-28T07:48:11;93642.88;;;0.14;100.00
40384;BME280;26097;42.366;23.818;2023-01-28T07:51:12;93644.22;;;0.23;100.00
40384;BME280;26097;42.366;23.818;2023-01-28T07:54:13;93647.63;;;0.24;100.00
40384;BME280;26097;42.366;23.818;2023-01-28T07:57:13;93657.22;;;0.19;100.00
40384;BME280;26097;42.366;23.818;2023-01-28T08:00:14;93645.25;;;0.19;100.00
40384;BME280;26097;42.366;23.818;2023-01-28T08:03:14;93644.88;;;0.48;100.00
40384;BME280;26097;42.366;23.818;2023-01-28T08:06:15;93644.34;;;0.60;100.00
40384;BME280;26097;42.366;23.818;2023-01-28T08:09:15;93640.47;;;0.70;100.00
40384;BME280;26097;42.366;23.818;2023-01-28T08:12:15;93642.13;;;0.71;100.00
40384;BME280;26097;42.366;23.818;2023-01-28T08:15:16;93647.41;;;0.68;100.00
40384;BME280;26097;42.366;23.818;2023-01-28T08:18:16;93658.00;;;0.61;100.00
40384;BME280;26097;42.366;23.818;2023-01-28T08:21:17;93652.38;;;0.71;100.00
40384;BME280;26097;42.366;23.818;2023-01-28T08:24:17;93650.88;;;0.67;100.00
40384;BME280;26097;42.366;23.818;2023-01-28T08:27:18;93650.25;;;0.62;100.00
40384;BME280;26097;42.366;23.818;2023-01-28T08:30:18;93655.31;;;0.83;100.00
40384;BME280;26097;42.366;23.818;2023-01-28T08:33:19;93653.91;;;0.76;100.00
40384;BME280;26097;42.366;23.818;2023-01-28T08:36:19;93661.25;;;0.83;100.00
40384;BME280;26097;42.366;23.818;2023-01-28T08:39:20;93658.06;;;0.97;100.00
40384;BME280;26097;42.366;23.818;2023-01-28T08:42:20;93660.44;;;1.21;100.00
40384;BME280;26097;42.366;23.818;2023-01-28T08:45:22;93653.91;;;1.14;100.00
40384;BME280;26097;42.366;23.818;2023-01-28T08:48:24;93661.03;;;1.26;100.00
40384;BME280;26097;42.366;23.818;2023-01-28T08:51:24;93658.03;;;1.36;100.00
40384;BME280;26097;42.366;23.818;2023-01-28T08:54:25;93661.81;;;1.28;100.00
40384;BME280;26097;42.366;23.818;2023-01-28T08:57:25;93666.59;;;1.17;100.00
40384;BME280;26097;42.366;23.818;2023-01-28T09:00:26;93673.88;;;1.26;100.00
40384;BME280;26097;42.366;23.818;2023-01-28T09:03:26;93678.50;;;1.37;100.00
40384;BME280;26097;42.366;23.818;2023-01-28T09:06:27;93672.88;;;1.48;100.00
40384;BME280;26097;42.366;23.818;2023-01-28T09:09:29;93668.03;;;1.42;100.00
40384;BME280;26097;42.366;23.818;2023-01-28T09:12:30;93666.53;;;1.38;100.00
40384;BME280;26097;42.366;23.818;2023-01-28T09:15:30;93669.34;;;1.51;100.00
40384;BME280;26097;42.366;23.818;2023-01-28T09:18:31;93669.69;;;1.43;100.00
40384;BME280;26097;42.366;23.818;2023-01-28T09:21:31;93673.63;;;1.50;100.00
40384;BME280;26097;42.366;23.818;2023-01-28T09:24:32;93676.81;;;1.55;100.00
40384;BME280;26097;42.366;23.818;2023-01-28T09:27:32;93673.88;;;1.63;100.00
40384;BME280;26097;42.366;23.818;2023-01-28T09:30:33;93671.41;;;1.62;100.00
40384;BME280;26097;42.366;23.818;2023-01-28T09:33:36;93671.84;;;1.70;100.00
40384;BME280;26097;42.366;23.818;2023-01-28T09:36:36;93672.78;;;1.87;100.00
40384;BME280;26097;42.366;23.818;2023-01-28T09:39:37;93670.97;;;1.89;100.00
40384;BME280;26097;42.366;23.818;2023-01-28T09:46:32;93671.47;;;1.78;100.00
40384;BME280;26097;42.366;23.818;2023-01-28T09:49:37;93680.25;;;1.91;100.00
40384;BME280;26097;42.366;23.818;2023-01-28T09:52:40;93667.47;;;1.90;100.00
40384;BME280;26097;42.366;23.818;2023-01-28T09:55:54;93667.63;;;1.69;100.00
40384;BME280;26097;42.366;23.818;2023-01-28T09:58:57;93668.16;;;1.93;100.00
40384;BME280;26097;42.366;23.818;2023-01-28T10:21:49;93671.84;;;2.40;100.00
40384;BME280;26097;42.366;23.818;2023-01-28T10:24:52;93674.41;;;2.58;100.00
40384;BME280;26097;42.366;23.818;2023-01-28T10:27:54;93680.47;;;2.39;100.00
40384;BME280;26097;42.366;23.818;2023-01-28T10:30:54;93673.81;;;2.35;100.00
40384;BME280;26097;42.366;23.818;2023-01-28T10:33:55;93671.19;;;2.53;100.00
40384;BME280;26097;42.366;23.818;2023-01-28T10:36:56;93671.69;;;2.43;100.00
40384;BME280;26097;42.366;23.818;2023-01-28T10:39:57;93681.63;;;1.98;100.00
40384;BME280;26097;42.366;23.818;2023-01-28T10:42:59;93683.41;;;1.61;100.00
40384;BME280;26097;42.366;23.818;2023-01-28T10:46:13;93676.28;;;1.66;100.00
40384;BME280;26097;42.366;23.818;2023-01-28T10:49:18;93685.44;;;1.72;100.00
40384;BME280;26097;42.366;23.818;2023-01-28T10:52:21;93686.66;;;1.65;100.00
40384;BME280;26097;42.366;23.818;2023-01-28T10:55:23;93690.31;;;1.41;100.00
40384;BME280;26097;42.366;23.818;2023-01-28T10:58:27;93687.53;;;1.46;100.00
40384;BME280;26097;42.366;23.818;2023-01-28T11:01:52;93679.75;;;1.65;100.00
40384;BME280;26097;42.366;23.818;2023-01-28T11:08:14;93682.03;;;1.35;100.00
40384;BME280;26097;42.366;23.818;2023-01-28T11:11:15;93674.97;;;1.40;100.00
40384;BME280;26097;42.366;23.818;2023-01-28T11:14:21;93685.25;;;1.40;100.00
40384;BME280;26097;42.366;23.818;2023-01-28T11:17:23;93685.16;;;1.61;100.00
40384;BME280;26097;42.366;23.818;2023-01-28T11:20:26;93681.03;;;1.56;100.00
40384;BME280;26097;42.366;23.818;2023-01-28T11:23:36;93684.00;;;1.49;100.00
40384;BME280;26097;42.366;23.818;2023-01-28T11:26:43;93678.72;;;1.33;100.00
40384;BME280;26097;42.366;23.818;2023-01-28T11:29:44;93681.53;;;1.28;100.00
40384;BME280;26097;42.366;23.818;2023-01-28T11:32:45;93676.44;;;1.26;100.00
40384;BME280;26097;42.366;23.818;2023-01-28T11:39:37;93678.88;;;1.30;100.00
40384;BME280;26097;42.366;23.818;2023-01-28T11:42:37;93672.22;;;1.25;100.00
40384;BME280;26097;42.366;23.818;2023-01-28T11:45:43;93682.50;;;1.25;100.00
40384;BME280;26097;42.366;23.818;2023-01-28T11:49:01;93673.72;;;1.30;100.00
40384;BME280;26097;42.366;23.818;2023-01-28T11:52:47;93679.00;;;1.26;100.00
40384;BME280;26097;42.366;23.818;2023-01-28T12:02:47;93681.53;;;1.09;100.00
40384;BME280;26097;42.366;23.818;2023-01-28T12:19:05;93687.63;;;1.25;100.00
40384;BME280;26097;42.366;23.818;2023-01-28T12:22:18;93687.94;;;1.37;100.00
40384;BME280;26097;42.366;23.818;2023-01-28T12:25:27;93689.13;;;1.30;100.00
40384;BME280;26097;42.366;23.818;2023-01-28T12:31:45;93694.31;;;1.10;100.00
40384;BME280;26097;42.366;23.818;2023-01-28T12:41:30;93698.03;;;1.22;100.00
40384;BME280;26097;42.366;23.818;2023-01-28T12:44:35;93694.38;;;1.28;100.00
40384;BME280;26097;42.366;23.818;2023-01-28T12:47:38;93700.50;;;1.43;100.00
40384;BME280;26097;42.366;23.818;2023-01-28T12:50:48;93698.41;;;1.51;100.00
40384;BME280;26097;42.366;23.818;2023-01-28T12:57:03;93701.91;;;1.68;100.00
40384;BME280;26097;42.366;23.818;2023-01-28T13:00:22;93702.78;;;1.68;100.00
40384;BME280;26097;42.366;23.818;2023-01-28T13:03:29;93707.75;;;1.71;100.00
40384;BME280;26097;42.366;23.818;2023-01-28T13:06:44;93705.13;;;1.91;100.00
40384;BME280;26097;42.366;23.818;2023-01-28T13:09:52;93709.38;;;2.09;100.00
40384;BME280;26097;42.366;23.818;2023-01-28T13:12:54;93713.44;;;1.96;100.00
40384;BME280;26097;42.366;23.818;2023-01-28T13:15:55;93716.91;;;1.95;100.00
40384;BME280;26097;42.366;23.818;2023-01-28T13:19:20;93721.09;;;1.97;100.00
40384;BME280;26097;42.366;23.818;2023-01-28T13:22:32;93715.56;;;1.88;100.00
40384;BME280;26097;42.366;23.818;2023-01-28T13:25:34;93714.81;;;1.85;100.00
40384;BME280;26097;42.366;23.818;2023-01-28T13:28:35;93722.50;;;1.85;100.00
40384;BME280;26097;42.366;23.818;2023-01-28T13:31:37;93728.22;;;1.73;100.00
40384;BME280;26097;42.366;23.818;2023-01-28T13:34:41;93732.16;;;1.63;100.00
40384;BME280;26097;42.366;23.818;2023-01-28T13:37:44;93733.47;;;1.52;100.00
40384;BME280;26097;42.366;23.818;2023-01-28T13:40:57;93744.81;;;1.29;100.00
40384;BME280;26097;42.366;23.818;2023-01-28T13:43:59;93747.72;;;1.21;100.00
40384;BME280;26097;42.366;23.818;2023-01-28T13:50:14;93755.34;;;1.23;100.00
40384;BME280;26097;42.366;23.818;2023-01-28T14:00:20;93760.91;;;1.33;100.00
40384;BME280;26097;42.366;23.818;2023-01-28T14:19:13;93759.91;;;1.54;100.00
40384;BME280;26097;42.366;23.818;2023-01-28T14:22:16;93766.72;;;1.55;100.00
40384;BME280;26097;42.366;23.818;2023-01-28T14:25:39;93773.09;;;1.66;100.00
40384;BME280;26097;42.366;23.818;2023-01-28T14:31:50;93773.25;;;1.63;100.00
40384;BME280;26097;42.366;23.818;2023-01-28T14:34:55;93772.75;;;1.74;100.00
40384;BME280;26097;42.366;23.818;2023-01-28T14:37:58;93785.75;;;1.51;100.00
40384;BME280;26097;42.366;23.818;2023-01-28T14:40:59;93777.91;;;1.54;100.00
40384;BME280;26097;42.366;23.818;2023-01-28T14:44:01;93782.63;;;1.45;100.00
40384;BME280;26097;42.366;23.818;2023-01-28T14:47:27;93788.81;;;1.21;100.00
40384;BME280;26097;42.366;23.818;2023-01-28T14:58:08;93793.75;;;0.65;100.00
40384;BME280;26097;42.366;23.818;2023-01-28T15:00:58;93793.44;;;0.52;100.00
40384;BME280;26097;42.366;23.818;2023-01-28T15:03:59;93798.75;;;0.48;100.00
40384;BME280;26097;42.366;23.818;2023-01-28T15:07:26;93814.88;;;0.29;100.00
40384;BME280;26097;42.366;23.818;2023-01-28T15:10:29;93806.69;;;0.21;100.00
40384;BME280;26097;42.366;23.818;2023-01-28T15:13:41;93813.81;;;0.12;100.00
40384;BME280;26097;42.366;23.818;2023-01-28T15:16:46;93819.03;;;0.11;100.00
40384;BME280;26097;42.366;23.818;2023-01-28T15:19:47;93816.63;;;0.06;100.00
40384;BME280;26097;42.366;23.818;2023-01-28T15:22:51;93819.38;;;0.02;100.00
40384;BME280;26097;42.366;23.818;2023-01-28T15:25:52;93827.44;;;-0.08;100.00
40384;BME280;26097;42.366;23.818;2023-01-28T15:28:55;93826.72;;;-0.11;100.00
40384;BME280;26097;42.366;23.818;2023-01-28T15:31:55;93822.81;;;-0.22;100.00
40384;BME280;26097;42.366;23.818;2023-01-28T15:34:58;93823.06;;;-0.28;100.00
40384;BME280;26097;42.366;23.818;2023-01-28T15:37:59;93837.91;;;-0.36;100.00
40384;BME280;26097;42.366;23.818;2023-01-28T15:41:01;93835.50;;;-0.41;100.00
40384;BME280;26097;42.366;23.818;2023-01-28T15:44:01;93843.22;;;-0.43;100.00
40384;BME280;26097;42.366;23.818;2023-01-28T15:47:30;93840.91;;;-0.49;100.00
40384;BME280;26097;42.366;23.818;2023-01-28T15:50:34;93855.72;;;-0.57;100.00
40384;BME280;26097;42.366;23.818;2023-01-28T15:53:42;93851.66;;;-0.63;100.00
40384;BME280;26097;42.366;23.818;2023-01-28T15:56:44;93857.72;;;-0.65;100.00
40384;BME280;26097;42.366;23.818;2023-01-28T15:59:44;93859.66;;;-0.72;100.00
40384;BME280;26097;42.366;23.818;2023-01-28T16:02:48;93865.78;;;-0.76;100.00
40384;BME280;26097;42.366;23.818;2023-01-28T16:05:59;93873.56;;;-0.79;100.00
40384;BME280;26097;42.366;23.818;2023-01-28T16:09:03;93869.56;;;-0.87;100.00
40384;BME280;26097;42.366;23.818;2023-01-28T16:12:11;93878.16;;;-0.89;100.00
40384;BME280;26097;42.366;23.818;2023-01-28T16:15:15;93882.50;;;-0.91;100.00
40384;BME280;26097;42.366;23.818;2023-01-28T16:21:43;93884.41;;;-0.96;100.00
40384;BME280;26097;42.366;23.818;2023-01-28T16:24:49;93887.03;;;-0.99;100.00
40384;BME280;26097;42.366;23.818;2023-01-28T16:27:52;93893.94;;;-1.02;100.00
40384;BME280;26097;42.366;23.818;2023-01-28T16:30:52;93893.16;;;-1.04;100.00
40384;BME280;26097;42.366;23.818;2023-01-28T16:33:52;93883.13;;;-1.10;100.00
40384;BME280;26097;42.366;23.818;2023-01-28T16:37:00;93888.47;;;-1.16;100.00
40384;BME280;26097;42.366;23.818;2023-01-28T16:40:00;93891.81;;;-1.14;100.00
40384;BME280;26097;42.366;23.818;2023-01-28T16:43:01;93891.84;;;-1.16;100.00
40384;BME280;26097;42.366;23.818;2023-01-28T16:46:01;93905.28;;;-1.09;100.00
40384;BME280;26097;42.366;23.818;2023-01-28T16:49:02;93906.09;;;-1.08;100.00
40384;BME280;26097;42.366;23.818;2023-01-28T16:52:02;93909.34;;;-1.03;100.00
40384;BME280;26097;42.366;23.818;2023-01-28T16:55:04;93910.28;;;-1.06;100.00
40384;BME280;26097;42.366;23.818;2023-01-28T16:58:04;93909.19;;;-0.98;100.00
40384;BME280;26097;42.366;23.818;2023-01-28T17:01:05;93896.31;;;-0.95;100.00
40384;BME280;26097;42.366;23.818;2023-01-28T17:04:05;93911.44;;;-0.89;100.00
40384;BME280;26097;42.366;23.818;2023-01-28T17:07:09;93906.44;;;-0.92;100.00
40384;BME280;26097;42.366;23.818;2023-01-28T17:10:09;93910.69;;;-0.93;100.00
40384;BME280;26097;42.366;23.818;2023-01-28T17:13:10;93911.72;;;-0.98;100.00
40384;BME280;26097;42.366;23.818;2023-01-28T17:16:10;93916.78;;;-0.95;100.00
40384;BME280;26097;42.366;23.818;2023-01-28T17:19:11;93915.00;;;-0.93;100.00
40384;BME280;26097;42.366;23.818;2023-01-28T17:22:11;93920.13;;;-0.93;100.00
40384;BME280;26097;42.366;23.818;2023-01-28T17:25:12;93920.38;;;-1.01;100.00
40384;BME280;26097;42.366;23.818;2023-01-28T17:28:13;93926.41;;;-1.04;100.00
40384;BME280;26097;42.366;23.818;2023-01-28T17:31:14;93924.84;;;-1.08;100.00
40384;BME280;26097;42.366;23.818;2023-01-28T17:34:14;93923.97;;;-1.07;100.00
40384;BME280;26097;42.366;23.818;2023-01-28T17:37:14;93923.97;;;-1.07;100.00
40384;BME280;26097;42.366;23.818;2023-01-28T17:40:15;93931.00;;;-1.13;100.00
40384;BME280;26097;42.366;23.818;2023-01-28T17:43:15;93931.09;;;-1.17;100.00
40384;BME280;26097;42.366;23.818;2023-01-28T17:46:16;93927.50;;;-1.11;100.00
40384;BME280;26097;42.366;23.818;2023-01-28T17:49:18;93934.34;;;-1.11;100.00
40384;BME280;26097;42.366;23.818;2023-01-28T17:52:18;93927.75;;;-1.19;100.00
40384;BME280;26097;42.366;23.818;2023-01-28T17:55:18;93934.59;;;-1.19;100.00